createdAt,value
2023-01-30T06:42:33.025Z,8.52
2023-01-30T06:45:19.937Z,10.32
2023-01-30T06:48:06.301Z,11.57
2023-01-30T06:50:55.251Z,10.00
2023-01-30T06:53:40.931Z,12.40
2023-01-30T06:56:34.017Z,11.30
2023-01-30T06:59:19.475Z,10.00
2023-01-30T07:02:04.898Z,16.05
2023-01-30T07:04:50.668Z,11.90
2023-01-30T07:07:36.860Z,11.00
2023-01-30T07:10:22.276Z,9.50
2023-01-30T07:13:08.077Z,9.93
2023-01-30T07:15:53.617Z,9.45
2023-01-30T07:18:39.060Z,10.40
2023-01-30T07:21:27.705Z,7.82
2023-01-30T07:24:13.403Z,10.70
2023-01-30T07:26:58.588Z,12.48
2023-01-30T07:29:45.093Z,9.90
2023-01-30T07:32:30.257Z,11.30
2023-01-30T07:35:16.636Z,9.90
2023-01-30T07:38:03.071Z,9.90
2023-01-30T07:40:49.364Z,11.30
2023-01-30T07:43:34.809Z,9.75
2023-01-30T07:46:23.242Z,8.43
2023-01-30T07:49:10.055Z,9.50
2023-01-30T07:51:55.981Z,9.95
2023-01-30T07:54:42.302Z,9.68
2023-01-30T07:57:27.431Z,7.45
2023-01-30T08:00:15.810Z,7.97
2023-01-30T08:03:01.456Z,5.72
2023-01-30T08:05:47.332Z,8.15
2023-01-30T08:08:32.785Z,8.23
2023-01-30T08:11:18.462Z,7.65
2023-01-30T08:14:03.932Z,9.40
2023-01-30T08:16:51.160Z,7.15
2023-01-30T08:19:36.802Z,7.60
2023-01-30T08:22:22.233Z,8.13
2023-01-30T08:25:08.937Z,9.00
2023-01-30T08:27:54.918Z,7.82
2023-01-30T08:30:42.142Z,7.43
2023-01-30T08:33:28.435Z,5.03
2023-01-30T08:36:14.257Z,5.32
2023-01-30T08:38:59.421Z,6.30
2023-01-30T08:41:44.786Z,6.60
2023-01-30T08:44:30.352Z,6.32
2023-01-30T08:47:17.578Z,6.40
2023-01-30T08:50:06.768Z,6.22
2023-01-30T08:52:52.445Z,7.20
2023-01-30T08:55:38.273Z,6.70
2023-01-30T08:58:23.540Z,6.32
2023-01-30T09:01:08.917Z,6.25
2023-01-30T09:03:55.054Z,5.95
2023-01-30T09:06:40.715Z,6.57
2023-01-30T09:09:26.224Z,6.87
2023-01-30T09:12:11.433Z,6.03
2023-01-30T09:14:58.550Z,6.90
2023-01-30T09:17:46.231Z,6.82
2023-01-30T09:20:32.214Z,8.50
2023-01-30T09:23:17.581Z,6.72
2023-01-30T09:26:04.924Z,7.40
2023-01-30T09:28:50.491Z,7.68
2023-01-30T09:31:35.941Z,7.07
2023-01-30T09:34:21.276Z,8.35
2023-01-30T09:37:08.429Z,7.30
2023-01-30T09:39:54.304Z,8.75
2023-01-30T09:42:39.497Z,6.80
2023-01-30T09:46:00.345Z,7.15
2023-01-30T09:49:14.133Z,7.72
2023-01-30T09:52:25.717Z,7.53
2023-01-30T09:55:22.647Z,7.90
2023-01-30T09:58:18.412Z,7.45
2023-01-30T10:01:06.893Z,7.22
2023-01-30T10:04:20.436Z,6.60
2023-01-30T10:07:13.122Z,8.87
2023-01-30T10:10:17.476Z,7.55
2023-01-30T10:13:11.668Z,7.28
2023-01-30T10:16:09.248Z,6.72
2023-01-30T10:19:16.052Z,16.35
2023-01-30T10:22:25.157Z,7.78
2023-01-30T10:25:24.579Z,7.87
2023-01-30T10:28:13.793Z,6.15
2023-01-30T10:31:10.690Z,7.12
2023-01-30T10:34:10.964Z,7.18
2023-01-30T10:37:13.694Z,8.98
2023-01-30T10:40:18.086Z,5.62
2023-01-30T10:43:27.862Z,6.95
2023-01-30T10:46:31.752Z,6.95
2023-01-30T10:52:44.141Z,6.25
2023-01-30T10:58:38.412Z,6.80
2023-01-30T11:01:24.668Z,6.37
2023-01-30T11:04:38.733Z,6.62
2023-01-30T11:07:24.798Z,7.07
2023-01-30T11:10:19.569Z,5.60
2023-01-30T11:13:20.261Z,4.75
2023-01-30T11:16:07.943Z,5.90
2023-01-30T11:22:04.983Z,5.97
2023-01-30T11:25:06.544Z,7.10
2023-01-30T11:28:03.548Z,5.87
2023-01-30T11:30:58.856Z,5.00
2023-01-30T11:33:44.263Z,5.28
2023-01-30T11:36:33.553Z,5.43
2023-01-30T11:39:23.412Z,6.03
2023-01-30T11:42:10.951Z,7.03
2023-01-30T11:45:16.317Z,6.10
2023-01-30T11:48:23.466Z,6.18
2023-01-30T11:51:16.962Z,5.60
2023-01-30T11:54:05.459Z,6.18
2023-01-30T11:56:55.950Z,5.80
2023-01-30T11:59:46.592Z,7.65
2023-01-30T12:02:34.252Z,6.00
2023-01-30T12:05:33.117Z,6.68
2023-01-30T12:08:31.255Z,5.62
2023-01-30T12:11:45.382Z,5.93
2023-01-30T12:14:46.958Z,7.05
2023-01-30T12:18:11.535Z,7.68
2023-01-30T12:21:26.259Z,5.85
2023-01-30T12:27:03.764Z,6.90
2023-01-30T12:30:11.583Z,6.97
2023-01-30T12:36:00.640Z,5.72
2023-01-30T12:39:15.056Z,6.87
2023-01-30T12:42:03.428Z,5.55
2023-01-30T12:44:57.770Z,6.37
